Time;durP1;ratioP1;P1;durP2;ratioP2;P2;SDS_P1;SDS_P2;PMS_P1;PMS_P2;Temp;Humidity;BMP_temperature;BMP_pressure;BME280_temperature;BME280_humidity;BME280_pressure;Samples;Min_cycle;Max_cycle;Signal;HPM_P1;HPM_P2
2022/12/29 00:01:33;;;;;;;1.92;0.63;;;7.90;99.90;;;;;;4990926;28;20617;-47
2022/12/29 00:04:03;;;;;;;0.90;0.50;;;7.90;99.90;;;;;;4994241;28;20778;-46
2022/12/29 00:06:31;;;;;;;1.10;0.45;;;7.90;99.90;;;;;;4982590;28;20313;-48
2022/12/29 00:09:00;;;;;;;1.00;0.70;;;7.90;99.90;;;;;;4987859;28;20218;-48
2022/12/29 00:11:28;;;;;;;0.70;0.60;;;7.90;99.90;;;;;;4988805;28;20222;-48
2022/12/29 00:16:48;;;;;;;0.60;0.50;;;7.90;99.90;;;;;;4992633;28;20698;-46
2022/12/29 00:36:06;;;;;;;0.70;0.50;;;7.90;99.90;;;;;;4996539;28;20226;-47
2022/12/29 00:44:14;;;;;;;0.70;0.70;;;7.90;99.90;;;;;;5003142;28;20730;-48
2022/12/29 00:46:46;;;;;;;0.90;0.60;;;7.90;99.90;;;;;;4994097;28;20306;-46
2022/12/29 00:49:32;;;;;;;0.50;0.50;;;7.90;99.90;;;;;;4999176;28;20240;-47
2022/12/29 00:52:06;;;;;;;0.65;0.50;;;7.90;99.90;;;;;;5001084;28;20224;-46
2022/12/29 00:54:36;;;;;;;0.60;0.50;;;7.90;99.90;;;;;;5002593;28;20597;-46
2022/12/29 00:57:06;;;;;;;1.27;0.70;;;7.90;99.90;;;;;;5017387;28;20638;-48
2022/12/29 00:59:36;;;;;;;1.05;0.95;;;7.90;99.90;;;;;;4997330;28;20220;-47
2022/12/29 01:02:05;;;;;;;1.08;0.60;;;7.90;99.90;;;;;;5008741;28;20390;-48
2022/12/29 01:04:35;;;;;;;0.60;0.50;;;7.90;99.90;;;;;;5007651;28;20264;-47
2022/12/29 01:07:05;;;;;;;0.95;0.52;;;7.90;99.90;;;;;;5014494;28;20194;-47
2022/12/29 01:12:40;;;;;;;0.77;0.60;;;7.90;99.90;;;;;;4997557;28;20661;-47
2022/12/29 01:15:13;;;;;;;0.50;0.40;;;7.90;99.90;;;;;;4994332;28;20557;-47
2022/12/29 01:17:43;;;;;;;0.70;0.40;;;8.00;99.90;;;;;;4982866;28;20298;-47
2022/12/29 01:20:12;;;;;;;0.60;0.50;;;7.90;99.90;;;;;;4990454;28;20203;-48
2022/12/29 01:22:43;;;;;;;0.50;0.40;;;7.90;99.90;;;;;;4993681;28;20290;-47
2022/12/29 01:25:12;;;;;;;0.60;0.50;;;7.90;99.90;;;;;;4982421;28;20202;-48
2022/12/29 01:27:41;;;;;;;0.55;0.45;;;8.00;99.90;;;;;;4987729;28;20230;-46
2022/12/29 01:30:10;;;;;;;4.50;0.80;;;8.00;99.90;;;;;;4990456;28;20312;-46
2022/12/29 01:32:39;;;;;;;0.60;0.47;;;8.00;99.90;;;;;;5023608;28;20201;-47
2022/12/29 01:35:08;;;;;;;0.70;0.50;;;8.00;99.90;;;;;;4989749;28;20195;-47
2022/12/29 01:37:36;;;;;;;0.60;0.50;;;8.00;99.90;;;;;;4991790;28;20739;-47
2022/12/29 01:40:07;;;;;;;0.68;0.60;;;8.00;99.90;;;;;;4991199;28;20229;-47
2022/12/29 01:42:36;;;;;;;0.50;0.40;;;8.00;99.90;;;;;;4984149;28;20194;-46
2022/12/29 01:45:10;;;;;;;0.70;0.50;;;8.00;99.90;;;;;;4992559;28;20221;-47
2022/12/29 01:47:45;;;;;;;0.60;0.50;;;8.00;99.90;;;;;;4988684;28;20209;-47
2022/12/29 01:50:18;;;;;;;0.57;0.57;;;8.00;99.90;;;;;;4977188;28;20451;-46
2022/12/29 01:52:55;;;;;;;0.77;0.60;;;8.00;99.90;;;;;;4984222;28;20193;-48
2022/12/29 01:55:27;;;;;;;0.90;0.60;;;8.00;99.90;;;;;;4992879;28;20232;-47
2022/12/29 01:58:00;;;;;;;0.75;0.70;;;8.00;99.90;;;;;;4981892;28;20695;-47
2022/12/29 02:00:31;;;;;;;0.50;0.43;;;8.00;99.90;;;;;;4981859;28;20264;-48
2022/12/29 02:03:00;;;;;;;0.68;0.60;;;8.00;99.90;;;;;;4994296;28;20416;-46
2022/12/29 02:05:34;;;;;;;0.80;0.60;;;8.00;99.90;;;;;;5001558;28;20226;-46
2022/12/29 02:08:03;;;;;;;0.50;0.40;;;8.00;99.90;;;;;;4985868;28;20873;-48
2022/12/29 02:10:38;;;;;;;0.70;0.50;;;8.00;99.90;;;;;;4981408;28;20245;-46
2022/12/29 02:13:06;;;;;;;0.60;0.50;;;8.00;99.90;;;;;;4993382;28;20206;-47
2022/12/29 02:15:47;;;;;;;0.90;0.55;;;8.00;99.90;;;;;;5016019;28;20201;-48
2022/12/29 02:18:37;;;;;;;0.82;0.50;;;8.00;99.90;;;;;;4987046;28;20288;-49
2022/12/29 02:21:40;;;;;;;1.95;0.80;;;8.00;99.90;;;;;;5001545;28;20226;-46
2022/12/29 02:24:47;;;;;;;0.70;0.70;;;8.00;99.90;;;;;;5000132;28;20194;-47
2022/12/29 02:27:37;;;;;;;0.60;0.50;;;8.00;99.90;;;;;;5000464;28;20318;-47
2022/12/29 02:30:14;;;;;;;0.70;0.60;;;8.00;99.90;;;;;;4990601;28;20216;-46
2022/12/29 02:32:52;;;;;;;0.50;0.40;;;8.00;99.90;;;;;;4995209;28;20226;-47
2022/12/29 02:35:31;;;;;;;0.60;0.60;;;8.00;99.90;;;;;;4993426;28;20239;-47
2022/12/29 02:38:11;;;;;;;0.50;0.50;;;8.00;99.90;;;;;;4993463;28;20228;-46
2022/12/29 02:40:44;;;;;;;0.73;0.60;;;8.00;99.90;;;;;;5000675;28;20198;-48
2022/12/29 02:43:23;;;;;;;0.80;0.60;;;8.00;99.90;;;;;;5002844;28;20667;-46
2022/12/29 02:45:57;;;;;;;1.17;0.60;;;8.00;99.90;;;;;;4978730;28;20248;-48
2022/12/29 02:48:32;;;;;;;0.75;0.60;;;8.00;99.90;;;;;;5003841;28;20218;-47
2022/12/29 02:51:03;;;;;;;2.22;0.65;;;8.00;99.90;;;;;;4993877;28;20225;-49
2022/12/29 02:56:21;;;;;;;0.77;0.50;;;8.00;99.90;;;;;;5006137;28;20891;-46
2022/12/29 02:58:50;;;;;;;0.93;0.50;;;8.00;99.90;;;;;;5003233;28;20268;-46
2022/12/29 03:01:30;;;;;;;0.52;0.38;;;8.00;99.90;;;;;;5002213;28;20317;-46
2022/12/29 03:04:17;;;;;;;1.25;0.35;;;8.00;99.90;;;;;;5008406;28;20197;-47
2022/12/29 03:06:56;;;;;;;0.50;0.43;;;8.00;99.90;;;;;;4987748;28;20646;-47
2022/12/29 03:09:36;;;;;;;0.55;0.40;;;8.00;99.90;;;;;;5005576;28;20757;-47
2022/12/29 03:12:15;;;;;;;0.70;0.50;;;8.10;99.90;;;;;;4998030;28;20217;-47
2022/12/29 03:17:52;;;;;;;0.75;0.60;;;8.00;99.90;;;;;;4990903;28;20232;-48
2022/12/29 03:20:27;;;;;;;1.15;0.45;;;8.00;99.90;;;;;;4996129;28;20222;-48
2022/12/29 03:23:02;;;;;;;0.98;0.50;;;8.00;99.90;;;;;;4994813;28;20496;-47
2022/12/29 03:25:39;;;;;;;0.50;0.40;;;8.10;99.90;;;;;;5001164;28;20210;-48
2022/12/29 03:28:14;;;;;;;0.98;0.50;;;8.10;99.90;;;;;;4993318;28;20583;-46
2022/12/29 03:30:47;;;;;;;1.33;0.40;;;8.10;99.90;;;;;;4993028;28;20225;-46
2022/12/29 03:33:22;;;;;;;0.85;0.57;;;8.10;99.90;;;;;;5009831;28;20201;-48
2022/12/29 03:35:57;;;;;;;0.57;0.50;;;8.10;99.90;;;;;;4986608;28;20649;-47
2022/12/29 03:38:34;;;;;;;2.03;0.60;;;8.10;99.90;;;;;;4989701;28;20213;-49
2022/12/29 03:41:08;;;;;;;0.90;0.50;;;8.10;99.90;;;;;;5000053;28;20228;-49
2022/12/29 03:43:37;;;;;;;0.90;0.57;;;8.10;99.90;;;;;;4990735;28;20612;-47
2022/12/29 03:46:07;;;;;;;0.50;0.40;;;8.10;99.90;;;;;;4991253;28;20233;-47
2022/12/29 03:48:37;;;;;;;0.93;0.50;;;8.10;99.90;;;;;;4981914;28;20707;-48
2022/12/29 03:51:07;;;;;;;0.57;0.40;;;8.10;99.90;;;;;;5000899;28;20307;-49
2022/12/29 03:53:36;;;;;;;0.60;0.45;;;8.10;99.90;;;;;;4988576;28;20194;-49
2022/12/29 03:56:05;;;;;;;0.60;0.50;;;8.10;99.90;;;;;;4983032;28;20914;-47
2022/12/29 03:58:34;;;;;;;0.70;0.40;;;8.10;99.90;;;;;;5009711;28;20221;-46
2022/12/29 04:01:09;;;;;;;0.80;0.40;;;8.10;99.90;;;;;;4995997;28;20505;-46
2022/12/29 04:03:40;;;;;;;0.65;0.50;;;8.10;99.90;;;;;;4995265;28;20292;-47
2022/12/29 04:06:10;;;;;;;1.17;0.70;;;8.10;99.90;;;;;;4989310;28;20787;-48
2022/12/29 04:08:48;;;;;;;0.93;0.60;;;8.10;99.90;;;;;;4986037;28;20615;-47
2022/12/29 04:11:17;;;;;;;1.35;0.40;;;8.10;99.90;;;;;;5000095;28;20822;-47
2022/12/29 04:13:46;;;;;;;0.90;0.40;;;8.10;99.90;;;;;;4998673;28;20206;-47
2022/12/29 04:16:21;;;;;;;0.60;0.40;;;8.10;99.90;;;;;;4991513;28;20476;-47
2022/12/29 04:18:50;;;;;;;1.80;0.50;;;8.10;99.90;;;;;;4985523;28;21007;-47
2022/12/29 04:21:19;;;;;;;2.17;0.65;;;8.10;99.90;;;;;;5005169;28;20287;-46
2022/12/29 04:23:49;;;;;;;0.83;0.50;;;8.10;99.90;;;;;;4999534;28;20198;-47
2022/12/29 04:26:18;;;;;;;0.73;0.40;;;8.10;99.90;;;;;;4986828;28;20726;-46
2022/12/29 04:28:56;;;;;;;0.80;0.50;;;8.10;99.90;;;;;;4992878;28;20248;-46
2022/12/29 04:32:00;;;;;;;0.70;0.60;;;8.10;99.90;;;;;;4925228;29;20309;-47
2022/12/29 04:34:30;;;;;;;0.50;0.40;;;8.10;99.90;;;;;;4974978;28;20248;-48
2022/12/29 04:37:00;;;;;;;0.77;0.32;;;8.10;99.90;;;;;;4993379;28;20294;-48
2022/12/29 04:39:29;;;;;;;1.03;0.50;;;8.10;99.90;;;;;;4997341;28;20649;-47
2022/12/29 04:41:58;;;;;;;0.70;0.60;;;8.10;99.90;;;;;;4982244;28;20831;-46
2022/12/29 04:44:26;;;;;;;0.60;0.40;;;8.10;99.90;;;;;;5008256;28;20194;-47
2022/12/29 04:47:18;;;;;;;0.60;0.50;;;8.10;99.90;;;;;;4989348;28;20225;-47
2022/12/29 04:49:55;;;;;;;0.60;0.40;;;8.10;99.90;;;;;;4975631;28;20498;-47
2022/12/29 04:52:46;;;;;;;0.65;0.50;;;8.10;99.90;;;;;;4973346;28;20693;-47
2022/12/29 04:55:15;;;;;;;0.95;0.50;;;8.10;99.90;;;;;;4993139;28;20757;-46
2022/12/29 04:57:45;;;;;;;0.68;0.60;;;8.10;99.90;;;;;;4993794;28;20221;-47
2022/12/29 05:00:19;;;;;;;0.50;0.40;;;8.10;99.90;;;;;;5003066;28;20236;-47
2022/12/29 05:02:49;;;;;;;0.50;0.40;;;8.10;99.90;;;;;;4990149;28;20277;-48
2022/12/29 05:05:19;;;;;;;0.50;0.40;;;8.10;99.90;;;;;;5000725;28;20248;-48
2022/12/29 05:07:52;;;;;;;0.73;0.52;;;8.10;99.90;;;;;;4993628;28;20288;-48
2022/12/29 05:10:20;;;;;;;0.68;0.47;;;8.10;99.90;;;;;;4990870;28;20315;-47
2022/12/29 05:12:53;;;;;;;0.50;0.40;;;8.10;99.90;;;;;;4994429;28;20628;-47
2022/12/29 05:15:22;;;;;;;0.80;0.60;;;8.10;99.90;;;;;;4988542;28;20283;-46
2022/12/29 05:17:52;;;;;;;1.23;0.45;;;8.10;99.90;;;;;;4990765;28;20737;-48
2022/12/29 05:20:21;;;;;;;1.08;0.68;;;8.10;99.90;;;;;;4991268;28;20222;-47
2022/12/29 05:22:49;;;;;;;0.50;0.40;;;8.20;99.90;;;;;;4991804;28;20225;-47
2022/12/29 05:25:19;;;;;;;0.60;0.60;;;8.10;99.90;;;;;;4993097;28;20973;-50
2022/12/29 05:28:01;;;;;;;0.63;0.50;;;8.10;99.90;;;;;;4986281;28;20222;-46
2022/12/29 05:30:41;;;;;;;0.60;0.43;;;8.20;99.90;;;;;;4999959;28;20224;-47
2022/12/29 05:33:11;;;;;;;0.60;0.60;;;8.20;99.90;;;;;;4973600;28;20391;-47
2022/12/29 05:35:41;;;;;;;0.60;0.43;;;8.20;99.90;;;;;;4975310;28;20445;-47
2022/12/29 05:38:10;;;;;;;0.60;0.40;;;8.20;99.90;;;;;;4980615;28;20249;-47
2022/12/29 05:40:41;;;;;;;1.67;0.60;;;8.20;99.90;;;;;;4999412;28;20684;-47
2022/12/29 05:43:45;;;;;;;0.60;0.52;;;8.20;99.90;;;;;;4939734;28;20203;-46
2022/12/29 05:46:32;;;;;;;0.60;0.40;;;8.20;99.90;;;;;;4995176;28;20225;-45
2022/12/29 05:49:16;;;;;;;1.37;0.70;;;8.20;99.90;;;;;;4991467;28;20214;-46
2022/12/29 05:52:24;;;;;;;0.85;0.50;;;8.20;99.90;;;;;;4924172;29;20833;-47
2022/12/29 05:54:53;;;;;;;1.23;0.70;;;8.20;99.90;;;;;;4910619;29;20220;-48
2022/12/29 05:57:25;;;;;;;0.65;0.52;;;8.20;99.90;;;;;;4944803;28;20289;-47
2022/12/29 06:00:12;;;;;;;0.60;0.32;;;8.20;99.90;;;;;;4984574;28;20224;-48
2022/12/29 06:02:45;;;;;;;0.60;0.55;;;8.20;99.90;;;;;;4972706;28;20247;-47
2022/12/29 06:05:17;;;;;;;1.00;0.50;;;8.20;99.90;;;;;;4996154;28;20706;-47
2022/12/29 06:07:46;;;;;;;0.60;0.40;;;8.20;99.90;;;;;;4980180;28;20229;-48
2022/12/29 06:10:17;;;;;;;0.57;0.45;;;8.20;99.90;;;;;;4987277;28;20289;-47
2022/12/29 06:12:53;;;;;;;0.73;0.50;;;8.20;99.90;;;;;;4976252;28;20294;-47
2022/12/29 06:15:21;;;;;;;1.33;0.67;;;8.20;99.90;;;;;;4987441;28;20229;-45
2022/12/29 06:17:51;;;;;;;0.77;0.50;;;8.20;99.90;;;;;;4982795;28;20496;-47
2022/12/29 06:20:19;;;;;;;0.70;0.43;;;8.20;99.90;;;;;;4994604;28;20202;-47
2022/12/29 06:22:49;;;;;;;0.70;0.43;;;8.20;99.90;;;;;;4985122;28;20452;-46
2022/12/29 06:25:18;;;;;;;0.57;0.40;;;8.20;99.90;;;;;;4991515;28;20245;-46
2022/12/29 06:27:48;;;;;;;0.60;0.32;;;8.20;99.90;;;;;;4995436;28;20656;-47
2022/12/29 06:30:18;;;;;;;1.00;0.52;;;8.20;99.90;;;;;;5002952;28;20559;-46
2022/12/29 06:32:46;;;;;;;0.40;0.33;;;8.20;99.90;;;;;;4990290;28;20659;-48
2022/12/29 06:35:15;;;;;;;0.82;0.40;;;8.20;99.90;;;;;;4991536;28;21160;-47
2022/12/29 06:37:50;;;;;;;0.70;0.40;;;8.20;99.90;;;;;;4996054;28;20740;-46
2022/12/29 06:40:21;;;;;;;0.70;0.50;;;8.20;99.90;;;;;;4985524;28;20682;-47
2022/12/29 06:43:11;;;;;;;0.50;0.38;;;8.20;99.90;;;;;;4988228;28;20201;-46
2022/12/29 06:45:47;;;;;;;0.80;0.40;;;8.20;99.90;;;;;;5008029;28;20228;-47
2022/12/29 06:48:15;;;;;;;0.40;0.40;;;8.20;99.90;;;;;;4978751;28;20787;-48
2022/12/29 06:50:44;;;;;;;0.60;0.50;;;8.20;99.90;;;;;;4974368;28;20230;-47
2022/12/29 06:53:13;;;;;;;1.20;0.60;;;8.20;99.90;;;;;;4984999;28;20189;-47
2022/12/29 06:55:43;;;;;;;0.60;0.60;;;8.20;99.90;;;;;;4986749;28;20217;-47
2022/12/29 06:58:12;;;;;;;0.80;0.55;;;8.20;99.90;;;;;;5009020;28;20459;-45
2022/12/29 07:00:42;;;;;;;0.50;0.40;;;8.20;99.90;;;;;;4994202;28;20193;-46
2022/12/29 07:03:11;;;;;;;0.50;0.40;;;8.20;99.90;;;;;;4995240;28;20201;-48
2022/12/29 07:05:41;;;;;;;0.80;0.55;;;8.20;99.90;;;;;;4980161;28;20699;-47
2022/12/29 07:08:10;;;;;;;0.60;0.40;;;8.20;99.90;;;;;;4993889;28;20233;-46
2022/12/29 07:10:38;;;;;;;0.60;0.50;;;8.20;99.90;;;;;;4983993;28;20194;-46
2022/12/29 07:13:08;;;;;;;0.60;0.50;;;8.20;99.90;;;;;;4986692;28;20691;-46
2022/12/29 07:15:37;;;;;;;0.60;0.50;;;8.20;99.90;;;;;;5004446;28;20237;-49
2022/12/29 07:18:06;;;;;;;0.80;0.50;;;8.20;99.90;;;;;;4980596;28;20233;-46
2022/12/29 07:20:36;;;;;;;1.15;0.40;;;8.20;99.90;;;;;;4982464;28;20313;-45
2022/12/29 07:23:05;;;;;;;0.70;0.50;;;8.20;99.90;;;;;;5000529;28;20207;-46
2022/12/29 07:25:34;;;;;;;0.83;0.60;;;8.20;99.90;;;;;;4996781;28;20225;-47
2022/12/29 07:28:03;;;;;;;0.60;0.50;;;8.20;99.90;;;;;;4992453;28;20561;-47
2022/12/29 07:30:32;;;;;;;0.60;0.40;;;8.20;99.90;;;;;;4976340;28;20333;-46
2022/12/29 07:33:01;;;;;;;0.95;0.60;;;8.20;99.90;;;;;;4989745;28;20556;-47
2022/12/29 07:35:29;;;;;;;1.67;0.60;;;8.20;99.90;;;;;;4990442;28;20728;-47
2022/12/29 07:37:59;;;;;;;0.80;0.40;;;8.20;99.90;;;;;;4987417;28;20220;-46
2022/12/29 07:40:27;;;;;;;2.50;0.70;;;8.20;99.90;;;;;;5006652;28;20885;-47
2022/12/29 07:42:57;;;;;;;0.93;0.40;;;8.20;99.90;;;;;;5003754;28;20217;-46
2022/12/29 07:45:41;;;;;;;0.50;0.40;;;8.20;99.90;;;;;;4990408;28;20217;-46
2022/12/29 07:48:09;;;;;;;0.70;0.47;;;8.20;99.90;;;;;;5000608;28;20213;-47
2022/12/29 07:50:38;;;;;;;0.63;0.55;;;8.20;99.90;;;;;;5003160;28;20229;-45
2022/12/29 07:53:07;;;;;;;2.07;0.50;;;8.20;99.90;;;;;;4996346;28;20205;-47
2022/12/29 07:55:36;;;;;;;0.50;0.50;;;8.20;99.90;;;;;;4994786;28;20991;-46
2022/12/29 07:58:04;;;;;;;0.90;0.50;;;8.20;99.90;;;;;;4987546;28;20300;-46
2022/12/29 08:00:33;;;;;;;0.80;0.50;;;8.20;99.90;;;;;;4987966;28;20269;-45
2022/12/29 08:03:02;;;;;;;1.73;0.50;;;8.20;99.90;;;;;;5002192;28;20194;-46
2022/12/29 08:05:31;;;;;;;0.93;0.40;;;8.20;99.90;;;;;;4984779;28;20210;-46
2022/12/29 08:07:59;;;;;;;0.70;0.60;;;8.20;99.90;;;;;;4988995;28;20232;-46
2022/12/29 08:10:29;;;;;;;2.35;0.55;;;8.20;99.90;;;;;;4985180;28;20678;-46
2022/12/29 08:12:59;;;;;;;0.75;0.50;;;8.30;99.90;;;;;;4983104;28;20297;-46
2022/12/29 08:15:27;;;;;;;0.90;0.40;;;8.30;99.90;;;;;;4996716;28;20222;-46
2022/12/29 08:18:00;;;;;;;0.70;0.50;;;8.30;99.90;;;;;;5006610;28;20522;-47
2022/12/29 08:20:28;;;;;;;1.58;0.70;;;8.30;99.90;;;;;;4981381;28;20236;-46
2022/12/29 08:22:57;;;;;;;1.45;0.50;;;8.30;99.90;;;;;;4994946;28;20226;-46
2022/12/29 08:25:30;;;;;;;0.80;0.43;;;8.30;99.90;;;;;;5002238;28;20675;-46
2022/12/29 08:27:58;;;;;;;0.60;0.50;;;8.30;99.90;;;;;;5001946;28;20308;-48
2022/12/29 08:30:27;;;;;;;0.80;0.50;;;8.30;99.90;;;;;;4990834;28;20215;-46
2022/12/29 08:32:55;;;;;;;0.60;0.60;;;8.30;99.90;;;;;;4982129;28;20660;-45
2022/12/29 08:35:24;;;;;;;2.88;0.60;;;8.30;99.90;;;;;;4987636;28;20198;-45
2022/12/29 08:37:52;;;;;;;1.40;0.43;;;8.30;99.90;;;;;;4996471;28;20210;-46
2022/12/29 08:40:21;;;;;;;1.45;0.60;;;8.30;99.90;;;;;;4999940;28;20370;-48
2022/12/29 08:42:52;;;;;;;1.27;1.02;;;8.30;99.90;;;;;;4981302;28;20229;-46
2022/12/29 08:45:20;;;;;;;0.50;0.50;;;8.30;99.90;;;;;;5003519;28;20212;-48
2022/12/29 08:47:48;;;;;;;1.23;0.43;;;8.30;99.90;;;;;;4989932;28;20224;-46
2022/12/29 08:50:17;;;;;;;1.30;0.77;;;8.30;99.90;;;;;;4985984;28;20441;-47
2022/12/29 08:52:45;;;;;;;3.20;0.63;;;8.30;99.90;;;;;;4989869;28;20989;-46
2022/12/29 08:55:14;;;;;;;1.80;0.53;;;8.30;99.90;;;;;;4990396;28;20986;-47
2022/12/29 08:57:42;;;;;;;4.55;1.10;;;8.30;99.90;;;;;;4994953;28;20458;-46
2022/12/29 09:00:18;;;;;;;5.33;0.60;;;8.30;99.90;;;;;;4980007;28;20256;-46
2022/12/29 09:02:46;;;;;;;0.70;0.67;;;8.30;99.90;;;;;;4986323;28;20445;-46
2022/12/29 09:05:15;;;;;;;0.98;0.55;;;8.30;99.90;;;;;;5004262;28;20472;-45
2022/12/29 09:07:44;;;;;;;0.73;0.50;;;8.30;99.90;;;;;;4988232;28;20813;-47
2022/12/29 09:10:15;;;;;;;2.35;0.65;;;8.30;99.90;;;;;;4985459;28;20468;-46
2022/12/29 09:12:46;;;;;;;0.70;0.50;;;8.30;99.90;;;;;;4998069;28;20280;-47
2022/12/29 09:15:15;;;;;;;0.95;0.50;;;8.30;99.90;;;;;;5004242;28;20536;-48
2022/12/29 09:17:45;;;;;;;1.35;1.10;;;8.30;99.90;;;;;;5005851;28;20691;-46
2022/12/29 09:20:16;;;;;;;2.83;0.60;;;8.30;99.90;;;;;;5002417;28;20598;-47
2022/12/29 09:22:45;;;;;;;1.50;0.60;;;8.30;99.90;;;;;;4993445;28;20455;-47
2022/12/29 09:25:14;;;;;;;0.95;0.60;;;8.30;99.90;;;;;;4987093;28;20457;-47
2022/12/29 09:27:43;;;;;;;5.47;0.70;;;8.30;99.90;;;;;;4983087;28;20253;-46
2022/12/29 09:30:17;;;;;;;1.65;0.50;;;8.40;99.90;;;;;;4990304;28;20214;-46
2022/12/29 09:32:47;;;;;;;3.07;0.90;;;8.40;99.90;;;;;;5003170;28;20253;-46
2022/12/29 09:35:22;;;;;;;1.63;0.80;;;8.40;99.90;;;;;;4978064;28;20472;-45
2022/12/29 09:37:51;;;;;;;1.08;0.55;;;8.40;99.90;;;;;;4987641;28;21031;-46
2022/12/29 09:40:29;;;;;;;2.83;0.70;;;8.40;99.90;;;;;;4993633;28;20277;-47
2022/12/29 09:43:25;;;;;;;1.10;0.47;;;8.40;99.90;;;;;;5006137;28;20456;-47
2022/12/29 09:45:59;;;;;;;1.13;0.70;;;8.40;99.90;;;;;;4978078;28;20480;-46
2022/12/29 09:48:32;;;;;;;1.40;0.50;;;8.40;99.90;;;;;;4994118;28;20646;-47
2022/12/29 09:51:04;;;;;;;1.30;0.70;;;8.40;99.90;;;;;;4982291;28;20303;-47
2022/12/29 09:53:39;;;;;;;0.70;0.50;;;8.40;99.90;;;;;;4993190;28;20444;-46
2022/12/29 09:56:14;;;;;;;1.52;0.60;;;8.40;99.90;;;;;;4986256;28;20244;-46
2022/12/29 09:58:48;;;;;;;1.35;0.50;;;8.40;99.90;;;;;;4988987;28;20217;-46
2022/12/29 10:01:27;;;;;;;1.65;0.85;;;8.40;99.90;;;;;;4988981;28;20234;-47
2022/12/29 10:03:59;;;;;;;2.00;1.10;;;8.40;99.90;;;;;;5008794;28;20247;-47
2022/12/29 10:06:33;;;;;;;0.60;0.50;;;8.40;99.90;;;;;;5001728;28;20536;-46
2022/12/29 10:09:31;;;;;;;2.10;0.60;;;8.40;99.90;;;;;;4988875;28;20472;-46
2022/12/29 10:12:14;;;;;;;1.20;0.55;;;8.40;99.90;;;;;;4986010;28;20240;-46
2022/12/29 10:14:58;;;;;;;1.90;0.65;;;8.40;99.90;;;;;;5004882;28;20199;-47
2022/12/29 10:17:37;;;;;;;1.40;0.63;;;8.40;99.90;;;;;;4993694;28;20667;-46
2022/12/29 10:20:28;;;;;;;0.80;0.80;;;8.40;99.90;;;;;;5001834;28;20276;-46
2022/12/29 10:23:15;;;;;;;1.02;0.50;;;8.50;99.90;;;;;;4991180;28;20735;-45
2022/12/29 10:25:44;;;;;;;1.53;0.60;;;8.50;99.90;;;;;;5000910;28;20223;-47
2022/12/29 10:28:23;;;;;;;0.70;0.50;;;8.50;99.90;;;;;;4987021;28;20457;-45
2022/12/29 10:30:54;;;;;;;2.97;0.80;;;8.50;99.90;;;;;;4997609;28;20261;-46
2022/12/29 10:33:31;;;;;;;2.40;0.60;;;8.50;99.90;;;;;;5011373;28;20259;-45
2022/12/29 10:36:03;;;;;;;2.22;0.85;;;8.50;99.90;;;;;;4993806;28;20485;-47
2022/12/29 10:38:39;;;;;;;3.13;0.60;;;8.50;99.90;;;;;;4986638;28;20308;-47
2022/12/29 10:41:16;;;;;;;0.60;0.45;;;8.50;99.90;;;;;;5002906;28;20469;-47
2022/12/29 10:43:47;;;;;;;0.50;0.40;;;8.50;99.90;;;;;;4988759;28;20570;-48
2022/12/29 10:46:21;;;;;;;1.50;0.87;;;8.50;99.90;;;;;;4979502;28;20304;-47
2022/12/29 10:48:49;;;;;;;1.87;0.80;;;8.50;99.90;;;;;;4986265;28;20878;-47
2022/12/29 10:51:23;;;;;;;0.90;0.65;;;8.50;99.90;;;;;;4989990;28;20475;-47
2022/12/29 10:53:56;;;;;;;1.37;0.63;;;8.50;99.90;;;;;;5000235;28;20195;-47
2022/12/29 10:56:33;;;;;;;0.50;0.50;;;8.50;99.90;;;;;;4987033;28;20531;-46
2022/12/29 10:59:08;;;;;;;3.23;0.60;;;8.50;99.90;;;;;;4990122;28;20232;-46
2022/12/29 11:01:41;;;;;;;4.10;1.65;;;8.50;99.90;;;;;;4995681;28;21041;-46
2022/12/29 11:04:34;;;;;;;1.38;0.70;;;8.50;99.90;;;;;;4992590;28;20690;-46
2022/12/29 11:07:06;;;;;;;1.43;0.77;;;8.50;99.90;;;;;;4989492;28;20221;-46
2022/12/29 11:09:44;;;;;;;1.50;0.50;;;8.50;99.90;;;;;;5007962;28;20913;-47
2022/12/29 11:12:21;;;;;;;2.97;0.87;;;8.50;99.90;;;;;;4981272;28;20477;-45
2022/12/29 11:15:08;;;;;;;0.80;0.70;;;8.50;99.90;;;;;;4992600;28;20972;-45
2022/12/29 11:17:45;;;;;;;1.40;0.75;;;8.50;99.90;;;;;;4984540;28;20460;-46
2022/12/29 11:20:32;;;;;;;1.37;0.60;;;8.50;99.90;;;;;;4992478;28;20197;-46
2022/12/29 11:23:04;;;;;;;2.10;1.00;;;8.50;99.90;;;;;;4990905;28;20449;-45
2022/12/29 11:25:33;;;;;;;1.27;0.60;;;8.50;99.90;;;;;;4998723;28;20468;-45
2022/12/29 11:28:04;;;;;;;1.10;0.67;;;8.50;99.90;;;;;;5002236;28;20556;-45
2022/12/29 11:30:35;;;;;;;1.43;0.60;;;8.50;99.90;;;;;;4969827;28;20480;-47
2022/12/29 11:33:06;;;;;;;3.22;0.60;;;8.50;99.90;;;;;;5007623;28;20952;-48
2022/12/29 11:35:39;;;;;;;1.10;0.60;;;8.50;99.90;;;;;;4997720;28;20221;-46
2022/12/29 11:38:20;;;;;;;3.40;0.90;;;8.50;99.90;;;;;;4995269;28;20564;-46
2022/12/29 11:40:49;;;;;;;2.23;0.70;;;8.50;99.90;;;;;;4999203;28;20476;-46
2022/12/29 11:43:27;;;;;;;2.10;0.93;;;8.50;99.90;;;;;;5002313;28;20425;-46
2022/12/29 11:45:59;;;;;;;2.40;0.87;;;8.50;99.90;;;;;;4992765;28;20887;-45
2022/12/29 11:48:32;;;;;;;4.80;1.60;;;8.50;99.90;;;;;;4996790;28;20462;-45
2022/12/29 11:51:01;;;;;;;1.30;0.60;;;8.50;99.90;;;;;;4994697;28;20473;-46
2022/12/29 11:53:39;;;;;;;1.97;0.80;;;8.50;99.90;;;;;;4987906;28;20287;-47
2022/12/29 11:56:11;;;;;;;1.43;0.50;;;8.50;99.90;;;;;;4988970;28;20480;-46
2022/12/29 11:58:40;;;;;;;3.03;0.80;;;8.60;99.90;;;;;;4992443;28;20460;-47
2022/12/29 12:01:16;;;;;;;1.63;1.17;;;8.50;99.90;;;;;;4981488;28;20479;-46
2022/12/29 12:03:49;;;;;;;5.23;1.10;;;8.60;99.90;;;;;;4987170;28;20567;-46
2022/12/29 12:06:23;;;;;;;3.73;0.77;;;8.50;99.90;;;;;;4993168;28;20461;-46
2022/12/29 12:08:56;;;;;;;1.33;0.80;;;8.60;99.90;;;;;;4979910;28;20846;-45
2022/12/29 12:11:33;;;;;;;1.97;0.90;;;8.60;99.90;;;;;;4989502;28;20792;-46
2022/12/29 12:14:04;;;;;;;2.50;0.53;;;8.50;99.90;;;;;;4988146;28;20444;-47
2022/12/29 12:16:56;;;;;;;2.03;0.93;;;8.50;99.90;;;;;;5010778;28;20463;-47
2022/12/29 12:19:34;;;;;;;1.87;0.90;;;8.60;99.90;;;;;;4994060;28;20781;-45
2022/12/29 12:22:11;;;;;;;5.17;0.90;;;8.60;99.90;;;;;;5000261;28;20477;-46
2022/12/29 12:24:48;;;;;;;1.27;0.70;;;8.60;99.90;;;;;;4984132;28;20451;-47
2022/12/29 12:27:22;;;;;;;1.73;0.70;;;8.50;99.90;;;;;;4980227;28;20538;-46
2022/12/29 12:29:57;;;;;;;2.00;1.80;;;8.50;99.90;;;;;;4991708;28;20494;-47
2022/12/29 12:32:34;;;;;;;4.03;1.13;;;8.50;99.90;;;;;;4997765;28;20472;-45
2022/12/29 12:35:03;;;;;;;1.70;0.70;;;8.50;99.90;;;;;;4998229;28;20999;-46
2022/12/29 12:37:45;;;;;;;2.33;1.13;;;8.50;99.90;;;;;;4984604;28;20217;-46
2022/12/29 12:40:34;;;;;;;1.70;0.70;;;8.50;99.90;;;;;;4995426;28;20441;-47
2022/12/29 12:43:20;;;;;;;1.10;0.82;;;8.60;99.90;;;;;;4988785;28;20503;-47
2022/12/29 12:45:56;;;;;;;2.00;0.90;;;8.60;99.90;;;;;;4983142;28;20226;-46
2022/12/29 12:48:47;;;;;;;1.20;0.63;;;8.60;99.90;;;;;;4990476;28;20500;-46
2022/12/29 12:51:25;;;;;;;1.73;0.90;;;8.60;99.90;;;;;;4966902;28;20478;-46
2022/12/29 12:54:06;;;;;;;0.80;0.70;;;8.60;99.90;;;;;;4984207;28;20520;-46
2022/12/29 12:57:05;;;;;;;2.53;0.98;;;8.60;99.90;;;;;;4997387;28;20508;-46
2022/12/29 12:59:53;;;;;;;1.23;0.50;;;8.60;99.90;;;;;;4984261;28;20261;-46
2022/12/29 13:02:32;;;;;;;2.17;1.33;;;8.60;99.90;;;;;;4987467;28;20461;-46
2022/12/29 13:05:21;;;;;;;3.43;0.87;;;8.70;99.90;;;;;;5011094;28;20548;-46
2022/12/29 13:08:20;;;;;;;2.07;1.40;;;8.70;99.90;;;;;;5008327;28;20483;-46
2022/12/29 13:10:54;;;;;;;1.93;1.27;;;8.70;99.90;;;;;;5003140;28;20474;-47
2022/12/29 13:13:48;;;;;;;2.10;1.40;;;8.60;99.90;;;;;;5016674;28;20437;-46
2022/12/29 13:16:23;;;;;;;1.83;1.67;;;8.60;99.90;;;;;;4998581;28;20465;-50
2022/12/29 13:18:59;;;;;;;3.17;1.40;;;8.70;99.90;;;;;;5020536;28;20446;-47
2022/12/29 13:21:41;;;;;;;1.90;1.30;;;8.60;99.90;;;;;;4990462;28;20464;-46
2022/12/29 13:24:21;;;;;;;1.27;0.97;;;8.60;99.90;;;;;;5029921;28;20493;-47
2022/12/29 13:26:55;;;;;;;2.83;1.30;;;8.60;99.90;;;;;;5004032;28;20507;-46
2022/12/29 13:29:35;;;;;;;1.60;1.20;;;8.60;99.90;;;;;;5019755;28;21031;-47
2022/12/29 13:32:22;;;;;;;3.20;1.10;;;8.60;99.90;;;;;;4986654;28;20477;-48
2022/12/29 13:35:02;;;;;;;1.60;0.90;;;8.60;99.90;;;;;;5009112;28;20452;-47
2022/12/29 13:37:34;;;;;;;3.87;1.70;;;8.60;99.90;;;;;;4984529;28;20541;-45
2022/12/29 13:40:10;;;;;;;2.70;1.40;;;8.60;99.90;;;;;;4982498;28;21016;-46
2022/12/29 13:42:40;;;;;;;2.47;1.03;;;8.60;99.90;;;;;;4995041;28;20439;-48
2022/12/29 13:45:15;;;;;;;2.30;1.13;;;8.60;99.90;;;;;;4980582;28;20457;-46
2022/12/29 13:47:50;;;;;;;1.80;1.47;;;8.60;99.90;;;;;;4974500;28;20465;-46
2022/12/29 13:50:21;;;;;;;3.63;1.80;;;8.60;99.90;;;;;;4981424;28;20460;-46
2022/12/29 13:52:59;;;;;;;1.70;0.90;;;8.60;99.90;;;;;;4978096;28;20905;-47
2022/12/29 13:55:33;;;;;;;3.90;1.30;;;8.60;99.90;;;;;;4977146;28;20554;-45
2022/12/29 13:58:05;;;;;;;1.60;0.83;;;8.60;99.90;;;;;;4988601;28;20878;-47
2022/12/29 14:00:45;;;;;;;1.80;1.10;;;8.60;99.90;;;;;;4981363;28;20465;-46
2022/12/29 14:03:47;;;;;;;1.88;1.38;;;8.60;99.90;;;;;;4990492;28;20960;-45
2022/12/29 14:06:23;;;;;;;1.33;1.17;;;8.60;99.90;;;;;;4998729;28;20221;-46
2022/12/29 14:08:55;;;;;;;2.47;1.43;;;8.60;99.90;;;;;;4990329;28;20464;-46